Latest Weather Observations for Strathalbyn

IDS60801

Issued at 12:31 pm CST Saturday 25 June 2016 (issued every 30 minutes, with the page automatically refreshed every 10 minutes)

About weather observations | Map of weather stations | Latest weather observations for SA | Other Formats
Station Details ID: 024580 Name: STRATHALBYN RACECOURSE Lat: -35.28 Lon: 138.89 Height: 58.0 m
Data from the previous 72 hours. | See also: Recent months at Strathalbyn
Date/Time
CST
Temp
°C
App
Temp
°C
Dew
Point
°C
Rel
Hum
%
Delta-T
°C
Wind Press
QNH
hPa
Press
MSL
hPa
Rain since
9am
mm
Dir  Spd
km/h
Gust
km/h
Spd
kts
Gust
kts
25/12:30pm 13.8 10.9 4.4 53 4.3 N 9 13 5 7 1023.4 - 0.0
25/12:00pm 13.0 9.6 4.2 55 4.0 N 11 20 6 11 1023.9 1023.9 0.0
25/11:30am 12.8 8.7 4.3 56 3.9 N 15 19 8 10 1024.2 - 0.0
25/11:00am 12.5 9.5 4.2 57 3.8 N 9 15 5 8 1024.5 - 0.0
25/10:30am 12.3 9.4 6.4 67 2.8 N 11 15 6 8 1024.8 - 0.0
25/10:00am 11.3 7.9 5.8 69 2.6 N 13 17 7 9 1024.8 - 0.0
25/09:30am 10.2 7.1 5.6 73 2.1 N 11 13 6 7 1024.6 - 0.0
25/09:00am 8.7 5.9 5.3 79 1.5 N 9 13 5 7 1024.6 1024.6 0.4
25/08:30am 6.8 4.3 4.6 86 1.0 N 7 11 4 6 1024.3 - 0.4
25/08:00am 4.7 2.0 2.9 88 0.7 N 6 7 3 4 1024.3 - 0.4
25/07:30am 3.7 2.0 1.9 88 0.7 CALM 0 6 0 3 1024.2 - 0.4
25/07:00am 3.9 0.1 1.9 87 0.8 N 11 11 6 6 1023.8 - 0.4
25/06:30am 4.6 0.9 2.5 86 0.8 N 11 13 6 7 1023.7 - 0.4
25/06:00am 4.7 1.4 2.4 85 0.9 ESE 9 11 5 6 1023.5 1023.5 0.4
25/05:30am 5.3 2.4 2.8 84 1.0 ESE 7 9 4 5 1023.5 - 0.4
25/05:00am 6.1 2.9 3.1 81 1.3 SE 9 15 5 8 1023.2 - 0.4
25/04:30am 5.3 2.0 2.7 83 1.1 N 9 13 5 7 1023.0 - 0.4
25/04:00am 5.4 2.2 2.8 83 1.1 NNW 9 11 5 6 1023.0 - 0.4
25/03:30am 5.9 2.3 3.1 82 1.2 NNW 11 13 6 7 1022.8 - 0.4
25/03:00am 5.5 2.5 2.0 78 1.4 W 7 11 4 6 1022.8 1022.8 0.4
25/02:30am 7.6 3.7 3.6 76 1.7 W 13 15 7 8 1022.8 - 0.4
25/02:00am 5.5 3.9 2.2 79 1.3 CALM 0 6 0 3 1022.8 - 0.4
25/01:30am 7.4 4.4 4.2 80 1.4 NW 9 15 5 8 1022.6 - 0.4
25/01:00am 7.1 4.4 3.5 78 1.5 WSW 7 9 4 5 1022.5 - 0.4
25/12:30am 6.4 3.6 3.4 81 1.3 WSW 7 9 4 5 1022.5 - 0.4
25/12:00am 8.3 5.0 4.3 76 1.7 WSW 11 15 6 8 1022.5 1022.5 0.4
 
Date/Time
CST
Temp
°C
App
Temp
°C
Dew
Point
°C
Rel
Hum
%
Delta-T
°C
Wind Press
QNH
hPa
Press
MSL
hPa
Rain since
9am
mm
Dir  Spd
km/h
Gust
km/h
Spd
kts
Gust
kts
24/11:30pm 6.8 4.6 3.1 77 1.6 SW 4 11 2 6 1022.5 - 0.4
24/11:00pm 8.3 4.4 3.6 72 2.0 W 13 15 7 8 1022.6 - 0.4
24/10:30pm 8.4 4.1 3.5 71 2.1 W 15 20 8 11 1022.5 - 0.4
24/10:00pm 8.1 3.9 3.6 73 1.9 W 15 19 8 10 1022.5 - 0.4
24/09:30pm 7.8 3.9 3.3 73 1.9 W 13 17 7 9 1022.3 - 0.4
24/09:00pm 8.1 3.8 3.4 72 2.0 W 15 17 8 9 1022.2 1022.2 0.4
24/08:30pm 8.1 3.9 3.6 73 1.9 W 15 17 8 9 1022.0 - 0.4
24/08:00pm 7.8 4.0 4.0 77 1.6 W 13 17 7 9 1021.7 - 0.4
24/07:30pm 8.3 4.5 4.1 75 1.8 WSW 13 17 7 9 1021.4 - 0.4
24/07:00pm 8.2 4.1 4.4 77 1.7 W 15 19 8 10 1020.8 - 0.4
24/06:30pm 8.8 4.7 4.2 73 2.0 WSW 15 22 8 12 1020.3 - 0.4
24/06:00pm 8.7 4.6 4.3 74 1.9 WSW 15 20 8 11 1019.9 1020.0 0.4
24/05:30pm 9.3 4.5 4.9 74 2.0 WSW 19 35 10 19 1019.4 - 0.4
24/05:00pm 9.5 5.4 4.3 70 2.3 W 15 17 8 9 1018.8 - 0.2
24/04:30pm 10.4 6.4 4.8 68 2.5 W 15 20 8 11 1018.4 - 0.2
24/04:00pm 10.6 5.7 4.9 68 2.6 WSW 20 30 11 16 1018.0 - 0.2
24/03:30pm 10.2 5.7 6.0 75 1.9 WSW 19 30 10 16 1017.6 - 0.2
24/03:00pm 10.0 4.9 6.0 76 1.8 WSW 22 33 12 18 1017.3 1017.4 0.2
24/02:30pm 10.9 4.9 5.4 69 2.5 SW 26 35 14 19 1016.7 - 0.2
24/02:00pm 11.0 5.1 4.0 62 3.1 SW 24 35 13 19 1016.6 - 0.2
24/01:30pm 10.6 4.1 4.7 67 2.7 SW 28 50 15 27 1016.5 - 0.2
24/01:09pm 11.2 4.4 3.3 58 3.5 WSW 28 48 15 26 1016.4 - 0.2
24/01:00pm 11.3 4.6 3.8 60 3.3 WSW 28 41 15 22 1016.4 - 0.2
24/12:30pm 10.5 3.7 4.9 68 2.5 WSW 30 43 16 23 1016.4 - 0.2
24/12:00pm 8.6 2.5 4.6 76 1.8 WSW 26 46 14 25 1016.7 1016.8 0.2
24/11:45am 10.0 2.5 3.5 64 2.8 WSW 32 57 17 31 1016.4 - 0.0
24/11:30am 10.5 2.0 3.3 61 3.1 SW 37 48 20 26 1016.0 - 0.0
24/11:02am 10.8 3.7 1.4 52 3.9 WSW 28 46 15 25 1015.7 - 0.0
24/11:00am 10.7 4.0 1.3 52 3.9 SW 26 46 14 25 1015.7 - 0.0
24/10:36am 10.1 2.4 2.5 59 3.2 WSW 32 54 17 29 1015.7 - 0.0
24/10:30am 10.7 3.7 2.0 55 3.7 WSW 28 41 15 22 1015.4 - 0.0
24/10:00am 9.5 2.3 2.8 63 2.9 SW 30 43 16 23 1014.9 - 0.0
24/09:30am 10.0 2.8 3.1 62 3.0 W 30 44 16 24 1014.1 - 0.0
24/09:00am 9.0 2.3 3.6 69 2.3 W 28 41 15 22 1013.1 1013.1 15.4
24/08:30am 8.6 1.7 2.6 66 2.5 W 28 39 15 21 1012.5 - 15.4
24/08:00am 8.0 0.0 1.8 65 2.6 W 33 46 18 25 1011.7 - 15.4
24/07:30am 7.4 0.4 2.1 69 2.2 W 28 39 15 21 1011.0 - 15.4
24/07:00am 7.2 -0.2 1.7 68 2.2 W 30 41 16 22 1010.6 - 15.4
24/06:30am 7.1 -0.2 2.4 72 1.9 WSW 30 54 16 29 1010.1 - 15.4
24/06:05am 8.4 1.4 1.8 63 2.7 WSW 28 46 15 25 1009.3 - 15.4
24/06:00am 8.2 1.6 2.0 65 2.6 WSW 26 41 14 22 1009.2 1009.2 15.4
24/05:30am 8.1 2.3 2.1 66 2.5 WSW 22 35 12 19 1008.4 - 15.4
24/05:00am 8.0 1.9 2.7 69 2.2 W 24 33 13 18 1007.8 - 15.4
24/04:30am 7.6 0.7 2.5 70 2.1 W 28 41 15 22 1007.3 - 15.4
24/04:00am 7.7 -0.1 1.5 65 2.5 W 32 43 17 23 1006.8 - 15.4
24/03:30am 7.6 1.5 2.7 71 2.1 W 24 39 13 21 1006.5 - 15.4
24/03:00am 7.6 1.3 3.5 75 1.8 WSW 26 39 14 21 1006.3 1006.3 15.4
24/02:30am 7.7 1.4 3.6 75 1.8 WSW 26 37 14 20 1005.7 - 15.4
24/02:00am 7.3 -2.3 3.5 77 1.6 W 43 70 23 38 1005.6 - 15.4
24/01:49am 8.3 1.8 4.9 79 1.5 W 28 56 15 30 1005.4 - 14.4
24/01:30am 8.2 1.6 4.4 77 1.7 WNW 28 41 15 22 1004.7 - 14.0
24/01:00am 8.1 1.8 3.9 75 1.8 W 26 37 14 20 1005.0 - 14.0
24/12:30am 7.9 0.4 3.6 74 1.8 W 32 67 17 36 1005.4 - 13.0
24/12:29am 8.0 1.2 3.3 72 2.0 WNW 28 67 15 36 1005.4 - 12.8
24/12:00am 8.9 2.9 3.3 68 2.4 W 24 37 13 20 1004.5 1004.5 12.6
 
Date/Time
CST
Temp
°C
App
Temp
°C
Dew
Point
°C
Rel
Hum
%
Delta-T
°C
Wind Press
QNH
hPa
Press
MSL
hPa
Rain since
9am
mm
Dir  Spd
km/h
Gust
km/h
Spd
kts
Gust
kts
23/11:30pm 8.8 3.8 3.4 69 2.3 W 19 24 10 13 1004.6 - 12.4
23/11:00pm 8.4 4.3 4.2 75 1.8 W 15 20 8 11 1004.5 - 12.4
23/10:30pm 8.4 3.9 4.4 76 1.8 W 17 24 9 13 1004.7 - 12.4
23/10:00pm 8.5 3.6 4.3 75 1.8 W 19 30 10 16 1004.5 - 12.4
23/09:30pm 8.3 3.3 4.5 77 1.7 W 20 41 11 22 1004.1 - 12.4
23/09:17pm 8.1 1.5 4.3 77 1.7 WSW 28 46 15 25 1004.7 - 12.4
23/09:16pm 8.0 1.4 4.2 77 1.7 WSW 28 41 15 22 1004.7 - 12.4
23/09:00pm 7.9 5.0 4.8 81 1.4 W 9 13 5 7 1004.2 1004.2 11.8
23/08:30pm 7.7 4.0 4.7 81 1.3 W 13 17 7 9 1003.8 - 11.8
23/08:00pm 7.4 3.3 4.4 81 1.3 W 15 20 8 11 1003.7 - 11.8
23/07:30pm 8.7 -0.2 5.3 79 1.5 W 41 59 22 32 1004.2 - 11.2
23/07:28pm 8.5 -1.4 4.7 77 1.7 W 46 59 25 32 1003.9 - 11.0
23/07:00pm 8.6 5.1 5.4 80 1.4 WNW 13 15 7 8 1002.6 - 10.6
23/06:30pm 9.5 5.7 5.7 77 1.7 WNW 15 24 8 13 1002.5 - 10.6
23/06:00pm 9.4 6.4 5.9 79 1.6 WNW 11 17 6 9 1002.2 1002.3 10.6
23/05:30pm 9.6 5.5 6.0 78 1.7 WNW 17 20 9 11 1001.8 - 10.6
23/05:00pm 9.8 4.7 5.8 76 1.8 WNW 22 32 12 17 1001.7 - 10.6
23/04:30pm 9.8 4.5 5.2 73 2.1 W 22 32 12 17 1001.4 - 10.6
23/04:00pm 9.0 3.6 4.4 73 2.0 NW 22 37 12 20 1001.5 - 10.6
23/03:38pm 9.1 2.4 5.5 78 1.6 W 30 50 16 27 1002.4 - 10.4
23/03:30pm 9.6 3.8 6.1 79 1.6 W 26 37 14 20 1002.1 - 10.0
23/03:00pm 9.5 4.5 6.6 82 1.4 WSW 22 32 12 17 1000.9 1001.0 9.6
23/02:30pm 9.9 4.7 7.3 84 1.2 WSW 24 39 13 21 1001.1 - 9.0
23/02:00pm 10.6 6.8 7.7 82 1.4 W 17 28 9 15 1000.7 - 7.2
23/01:30pm 10.4 5.3 7.5 82 1.4 W 24 35 13 19 1000.7 - 6.4
23/01:00pm 11.1 6.3 7.4 78 1.8 WNW 22 35 12 19 1001.2 - 4.8
23/12:30pm 10.8 6.2 8.2 84 1.3 W 22 32 12 17 1001.6 - 4.0
23/12:00pm 10.9 4.1 7.8 81 1.5 W 33 44 18 24 1001.5 1001.6 2.2
23/11:57am 10.9 3.7 7.6 80 1.6 W 35 52 19 28 1001.5 - 2.0
23/11:30am 12.3 2.9 8.8 79 1.8 NW 48 67 26 36 1000.1 - 1.2
23/11:00am 11.9 2.0 8.4 79 1.7 NW 50 69 27 37 1000.1 - 1.0
23/10:30am 12.3 -0.5 8.2 76 2.0 WNW 65 95 35 51 1000.1 - 0.4
23/10:00am 13.3 1.5 7.3 67 2.9 NW 59 80 32 43 999.7 - 0.0
23/09:30am 13.1 1.8 7.3 68 2.8 NW 56 76 30 41 999.8 - 0.0
23/09:00am 12.9 4.5 7.4 69 2.7 NW 41 59 22 32 1000.8 1000.9 0.8
23/08:30am 12.7 6.7 7.2 69 2.7 NNW 28 46 15 25 1001.6 - 0.8
23/08:28am 12.7 6.7 7.2 69 2.7 NNW 28 46 15 25 1001.6 - 0.8
23/08:00am 12.2 7.4 7.5 73 2.3 NNW 22 46 12 25 1001.9 - 0.8
23/07:39am 12.3 6.4 7.4 72 2.4 NNW 28 46 15 25 1002.0 - 0.8
23/07:30am 12.4 8.2 7.5 72 2.4 NNW 19 39 10 21 1002.1 - 0.8
23/07:00am 12.8 8.8 8.1 73 2.3 N 19 32 10 17 1002.6 - 0.8
23/06:30am 12.5 9.7 8.4 76 2.0 NW 13 20 7 11 1003.2 - 0.8
23/06:00am 12.6 9.0 8.5 76 2.1 NNW 17 30 9 16 1003.4 1003.4 0.8
23/05:30am 12.5 8.1 8.8 78 1.9 NW 22 37 12 20 1003.7 - 0.8
23/05:00am 12.0 7.9 8.8 81 1.6 NNW 20 33 11 18 1003.9 - 0.8
23/04:35am 12.2 6.6 8.9 80 1.7 NW 28 46 15 25 1004.2 - 0.8
23/04:30am 12.3 7.5 9.0 80 1.7 NNW 24 39 13 21 1004.4 - 0.8
23/04:00am 12.7 8.2 8.6 76 2.0 NNW 22 32 12 17 1004.6 - 0.8
23/03:40am 13.1 7.4 8.2 72 2.4 NW 28 52 15 28 1004.9 - 0.8
23/03:30am 12.9 7.2 8.2 73 2.3 NW 28 41 15 22 1004.9 - 0.8
23/03:08am 12.9 6.4 8.2 73 2.3 NW 32 50 17 27 1005.1 - 0.8
23/03:00am 12.9 6.2 8.2 73 2.3 NW 33 48 18 26 1005.3 1005.3 0.8
23/02:30am 12.6 6.0 7.9 73 2.3 NW 32 44 17 24 1005.5 - 0.8
23/02:00am 12.5 7.4 7.8 73 2.3 NW 24 43 13 23 1005.8 - 0.8
23/01:30am 12.7 6.5 7.8 72 2.4 NW 30 46 16 25 - - 0.8
23/01:00am 12.7 6.2 8.0 73 2.3 NW 32 46 17 25 1006.6 - 0.8
23/12:30am 12.8 6.3 8.1 73 2.3 NW 32 44 17 24 1006.9 - 0.8
23/12:00am 12.9 7.6 8.4 74 2.2 NNW 26 43 14 23 1007.1 1007.1 0.8
 
Date/Time
CST
Temp
°C
App
Temp
°C
Dew
Point
°C
Rel
Hum
%
Delta-T
°C
Wind Press
QNH
hPa
Press
MSL
hPa
Rain since
9am
mm
Dir  Spd
km/h
Gust
km/h
Spd
kts
Gust
kts
22/11:30pm 12.9 8.0 8.4 74 2.2 NW 24 37 13 20 1007.6 - 0.8
22/11:00pm 12.9 8.0 8.6 75 2.2 NW 24 33 13 18 1007.7 - 0.8
22/10:30pm 12.7 8.6 8.8 77 2.0 NNW 20 35 11 19 1008.0 - 0.8
22/10:00pm 12.5 7.6 7.0 69 2.7 NW 22 32 12 17 1008.2 - 0.8
22/09:32pm 12.9 7.2 8.4 74 2.2 NW 28 50 15 27 1008.6 - 0.8
22/09:30pm 12.9 7.9 8.0 72 2.4 NW 24 50 13 27 1008.7 - 0.8
22/09:00pm 12.7 7.7 8.0 73 2.3 NW 24 32 13 17 1008.7 1008.7 0.8
22/08:30pm 12.5 8.8 9.3 81 1.6 NW 19 26 10 14 1008.8 - 0.4
22/08:00pm 12.4 8.2 8.1 75 2.1 NNW 20 32 11 17 1008.6 - 0.0
22/07:30pm 12.1 8.4 7.8 75 2.1 NNW 17 26 9 14 1008.8 - 0.0
22/07:00pm 12.5 7.9 8.0 74 2.2 NW 22 32 12 17 1008.8 - 0.0
22/06:30pm 12.8 7.8 7.9 72 2.4 NW 24 43 13 23 1008.5 - 0.0
22/06:00pm 12.9 8.3 8.0 72 2.4 NW 22 37 12 20 1008.5 1008.5 0.0
22/05:30pm 12.9 8.6 8.0 72 2.4 NW 20 28 11 15 1008.5 - 0.0
22/05:00pm 13.1 9.0 8.0 71 2.5 NW 19 28 10 15 1008.3 - 0.0
22/04:30pm 13.7 8.3 7.9 68 2.9 NW 26 37 14 20 1008.4 - 0.0
22/04:00pm 14.4 9.7 7.9 65 3.2 WNW 22 30 12 16 1008.7 - 0.0
22/03:30pm 14.7 10.8 8.6 67 3.1 NW 19 26 10 14 1008.7 - 0.0
22/03:00pm 14.6 10.1 8.5 67 3.1 NW 22 33 12 18 1008.6 1008.6 0.0
22/02:30pm 14.9 9.5 8.2 64 3.4 NW 26 39 14 21 1008.6 - 0.0
22/02:00pm 15.9 10.6 6.9 55 4.4 W 24 43 13 23 1008.6 - 0.0
22/01:30pm 15.4 9.3 6.7 56 4.3 WNW 28 43 15 23 1008.7 - 0.0
22/01:00pm 15.7 9.2 6.7 55 4.4 W 30 41 16 22 1008.9 - 0.0

Other Formats:

Comma delimited format used in spreadsheet applications
http://www.bom.gov.au/fwo/IDS60801/IDS60801.94814.axf

JavaScript Object Notation format (JSON) in row-major order
http://www.bom.gov.au/fwo/IDS60801/IDS60801.94814.json